createdAt,value
2022-11-24T00:04:32.783Z,10.02
2022-11-24T00:09:34.995Z,11.27
2022-11-24T00:14:37.027Z,10.43
2022-11-24T00:19:39.054Z,10.90
2022-11-24T00:24:41.102Z,10.57
2022-11-24T00:29:43.240Z,13.68
2022-11-24T00:34:45.550Z,12.18
2022-11-24T00:39:47.590Z,11.15
2022-11-24T00:44:49.688Z,13.32
2022-11-24T00:49:51.784Z,12.07
2022-11-24T00:54:53.821Z,11.35
2022-11-24T00:59:55.786Z,10.98
2022-11-24T01:04:57.776Z,10.18
2022-11-24T01:09:59.841Z,9.63
2022-11-24T01:15:02.195Z,9.18
2022-11-24T01:20:05.427Z,10.05
2022-11-24T01:25:09.232Z,9.48
2022-11-24T01:30:11.512Z,10.80
2022-11-24T01:35:13.579Z,11.50
2022-11-24T01:40:15.908Z,11.68
2022-11-24T01:45:23.907Z,11.40
2022-11-24T01:50:26.109Z,11.48
2022-11-24T01:55:34.669Z,12.68
2022-11-24T02:00:39.218Z,13.35
2022-11-24T02:05:51.049Z,12.55
2022-11-24T02:10:54.941Z,12.68
2022-11-24T02:15:57.009Z,12.75
2022-11-24T02:21:01.532Z,14.38
2022-11-24T02:26:18.524Z,13.63
2022-11-24T02:31:20.666Z,13.15
2022-11-24T02:36:22.702Z,11.65
2022-11-24T02:41:26.976Z,10.38
2022-11-24T02:46:30.097Z,10.18
2022-11-24T02:51:34.502Z,10.35
2022-11-24T02:56:36.609Z,9.30
2022-11-24T03:01:38.685Z,10.70
2022-11-24T03:06:40.883Z,11.32
2022-11-24T03:11:43.094Z,9.77
2022-11-24T03:16:45.144Z,10.63
2022-11-24T03:21:47.232Z,11.23
2022-11-24T03:26:49.301Z,12.23
2022-11-24T03:31:51.387Z,10.02
2022-11-24T03:36:53.349Z,9.90
2022-11-24T03:41:55.476Z,10.18
2022-11-24T03:46:57.752Z,12.68
2022-11-24T03:52:02.657Z,11.85
2022-11-24T03:57:08.790Z,11.90
2022-11-24T04:02:10.931Z,13.52
2022-11-24T04:07:12.956Z,12.38
2022-11-24T04:12:33.657Z,10.77
2022-11-24T04:17:35.770Z,9.65
2022-11-24T04:22:38.242Z,10.63
2022-11-24T04:27:40.434Z,8.27
2022-11-24T04:32:42.522Z,10.52
2022-11-24T04:37:44.645Z,10.10
2022-11-24T04:42:55.081Z,12.52
2022-11-24T04:47:57.085Z,8.32
2022-11-24T04:52:59.167Z,9.20
2022-11-24T04:58:02.281Z,9.35
2022-11-24T05:03:05.021Z,10.45
2022-11-24T05:08:07.035Z,9.68
2022-11-24T05:13:13.664Z,10.70
2022-11-24T05:18:16.871Z,11.80
2022-11-24T05:23:18.935Z,8.90
2022-11-24T05:28:21.073Z,10.15
2022-11-24T05:33:23.200Z,11.75
2022-11-24T05:38:25.223Z,11.35
2022-11-24T05:43:27.413Z,13.32
2022-11-24T05:48:29.609Z,11.38
2022-11-24T05:53:31.705Z,12.32
2022-11-24T05:58:33.712Z,12.82
2022-11-24T06:03:35.856Z,11.38
2022-11-24T06:08:38.002Z,10.93
2022-11-24T06:13:41.834Z,10.90
2022-11-24T06:18:44.134Z,9.98
2022-11-24T06:23:49.397Z,13.10
2022-11-24T06:28:51.382Z,10.65
2022-11-24T06:33:53.834Z,11.20
2022-11-24T06:38:55.902Z,10.30
2022-11-24T06:43:58.181Z,11.10
2022-11-24T06:49:00.731Z,10.95
2022-11-24T06:54:06.757Z,9.75
2022-11-24T06:59:17.609Z,10.48
2022-11-24T07:04:19.966Z,9.10
2022-11-24T07:09:21.980Z,17.08
2022-11-24T07:14:25.977Z,13.05
2022-11-24T07:19:28.683Z,10.65
2022-11-24T07:24:30.774Z,10.80
2022-11-24T07:29:32.785Z,9.45
2022-11-24T07:34:35.025Z,9.25
2022-11-24T07:39:37.294Z,9.35
2022-11-24T07:44:40.729Z,8.55
2022-11-24T07:49:42.733Z,8.63
2022-11-24T07:54:44.744Z,15.38
2022-11-24T07:59:46.765Z,10.00
2022-11-24T08:04:48.833Z,12.85
2022-11-24T08:09:52.256Z,12.50
2022-11-24T08:14:54.350Z,14.07
2022-11-24T08:19:56.410Z,13.73
2022-11-24T08:24:58.418Z,13.77
2022-11-24T08:30:00.390Z,16.80
2022-11-24T08:35:13.923Z,12.85
2022-11-24T08:40:17.023Z,14.70
2022-11-24T08:45:21.458Z,12.93
2022-11-24T08:50:25.690Z,15.50
2022-11-24T08:55:27.800Z,13.45
2022-11-24T09:00:29.873Z,13.93
2022-11-24T09:10:54.824Z,11.45
2022-11-24T09:15:56.869Z,10.68
2022-11-24T09:21:08.445Z,13.90
2022-11-24T09:26:19.576Z,12.07
2022-11-24T09:31:24.150Z,14.10
2022-11-24T09:36:26.502Z,14.52
2022-11-24T09:41:40.662Z,19.33
2022-11-24T09:47:16.476Z,17.58
2022-11-24T09:52:47.398Z,17.27
2022-11-24T09:57:59.112Z,17.10
2022-11-24T10:08:39.389Z,17.30
2022-11-24T10:14:03.115Z,15.68
2022-11-24T10:19:17.648Z,15.85
2022-11-24T10:24:28.565Z,15.27
2022-11-24T10:29:39.933Z,17.37
2022-11-24T10:34:45.405Z,15.68
2022-11-24T10:40:00.819Z,16.83
2022-11-24T10:45:15.130Z,20.13
2022-11-24T10:50:19.788Z,20.48
2022-11-24T10:55:21.872Z,18.17
2022-11-24T11:00:23.845Z,18.02
2022-11-24T11:05:42.427Z,16.50
2022-11-24T11:10:45.676Z,18.05
2022-11-24T11:15:47.978Z,18.50
2022-11-24T11:20:58.497Z,22.85
2022-11-24T11:26:25.263Z,21.30
2022-11-24T11:31:28.417Z,20.80
2022-11-24T11:36:32.909Z,20.13
2022-11-24T11:41:41.214Z,23.23
2022-11-24T11:46:45.165Z,22.40
2022-11-24T11:52:05.459Z,19.35
2022-11-24T11:57:25.866Z,22.42
2022-11-24T12:02:53.654Z,19.25
2022-11-24T12:08:12.502Z,20.83
2022-11-24T12:13:35.550Z,16.27
2022-11-24T12:19:03.202Z,15.65
2022-11-24T12:24:30.575Z,16.60
2022-11-24T12:30:02.418Z,14.43
2022-11-24T12:35:20.445Z,15.13
2022-11-24T12:40:46.688Z,14.27
2022-11-24T12:46:17.213Z,15.02
2022-11-24T12:51:24.365Z,12.95
2022-11-24T12:56:51.093Z,14.15
2022-11-24T13:02:02.131Z,15.38
2022-11-24T13:07:19.467Z,12.68
2022-11-24T13:12:22.287Z,14.35
2022-11-24T13:17:38.254Z,12.55
2022-11-24T13:22:58.749Z,12.30
2022-11-24T13:28:03.076Z,11.13
2022-11-24T13:33:16.178Z,12.80
2022-11-24T13:38:51.087Z,14.68
2022-11-24T13:44:17.562Z,16.65
2022-11-24T13:49:20.769Z,12.63
2022-11-24T13:54:25.697Z,14.38
2022-11-24T13:59:34.693Z,19.80
2022-11-24T14:04:39.594Z,18.27
2022-11-24T14:09:51.115Z,17.45
2022-11-24T14:15:20.578Z,13.35
2022-11-24T14:20:25.489Z,15.50
2022-11-24T14:25:32.489Z,13.07
2022-11-24T14:30:34.528Z,10.43
2022-11-24T14:35:49.401Z,11.68
2022-11-24T14:40:54.138Z,16.23
2022-11-24T14:45:59.484Z,14.20
2022-11-24T14:51:15.013Z,13.27
2022-11-24T14:56:28.944Z,12.40
2022-11-24T15:01:34.130Z,11.05
2022-11-24T15:06:36.588Z,14.13
2022-11-24T15:11:38.855Z,10.15
2022-11-24T15:16:41.018Z,11.63
2022-11-24T15:21:43.054Z,11.13
2022-11-24T15:26:45.853Z,10.05
2022-11-24T15:31:52.325Z,13.38
2022-11-24T15:36:54.584Z,9.90
2022-11-24T15:41:56.716Z,14.25
2022-11-24T15:46:58.801Z,8.93
2022-11-24T15:52:01.090Z,13.05
2022-11-24T15:57:03.184Z,12.15
2022-11-24T16:02:05.212Z,13.23
2022-11-24T16:07:12.341Z,13.15
2022-11-24T16:12:14.385Z,10.77
2022-11-24T16:17:16.375Z,9.55
2022-11-24T16:22:18.579Z,12.82
2022-11-24T16:27:20.678Z,10.20
2022-11-24T16:32:22.743Z,12.00
2022-11-24T16:37:24.845Z,10.02
2022-11-24T16:42:26.981Z,10.45
2022-11-24T16:47:29.105Z,10.15
2022-11-24T16:52:31.167Z,10.02
2022-11-24T16:57:33.404Z,10.32
2022-11-24T17:02:35.672Z,10.77
2022-11-24T17:07:39.397Z,8.85
2022-11-24T17:12:41.497Z,10.15
2022-11-24T17:18:08.369Z,7.57
2022-11-24T17:23:06.696Z,8.75
2022-11-24T17:28:08.669Z,9.40
2022-11-24T17:33:10.768Z,11.43
2022-11-24T17:38:12.982Z,9.07
2022-11-24T17:43:14.965Z,9.80
2022-11-24T17:48:17.038Z,8.18
2022-11-24T17:53:19.020Z,10.05
2022-11-24T17:58:21.172Z,6.80
2022-11-24T18:03:24.166Z,10.27
2022-11-24T18:08:26.270Z,9.00
2022-11-24T18:13:55.332Z,9.10
2022-11-24T18:19:07.906Z,9.13
2022-11-24T18:24:12.512Z,7.85
2022-11-24T18:29:14.507Z,6.75
2022-11-24T18:34:16.554Z,8.32
2022-11-24T18:39:19.372Z,8.05
2022-11-24T18:44:22.687Z,7.40
2022-11-24T18:49:24.734Z,8.50
2022-11-24T18:54:28.188Z,6.20
2022-11-24T18:59:30.238Z,8.65
2022-11-24T19:04:32.236Z,6.70
2022-11-24T19:09:34.266Z,9.48
2022-11-24T19:14:36.731Z,8.15
2022-11-24T19:19:39.835Z,7.93
2022-11-24T19:24:41.907Z,6.38
2022-11-24T19:29:43.990Z,7.15
2022-11-24T19:34:46.072Z,6.55
2022-11-24T19:39:48.392Z,6.60
2022-11-24T19:44:56.200Z,8.27
2022-11-24T19:49:58.929Z,9.48
2022-11-24T19:55:02.265Z,7.82
2022-11-24T20:00:07.785Z,10.82
2022-11-24T20:05:09.856Z,9.95
2022-11-24T20:10:11.918Z,7.68
2022-11-24T20:15:15.095Z,8.98
2022-11-24T20:20:17.253Z,8.43
2022-11-24T20:25:19.375Z,8.75
2022-11-24T20:30:21.440Z,6.15
2022-11-24T20:35:23.450Z,6.07
2022-11-24T20:40:25.485Z,5.43
2022-11-24T20:45:27.591Z,6.70
2022-11-24T20:50:29.650Z,6.63
2022-11-24T20:55:33.697Z,6.38
2022-11-24T21:00:35.882Z,4.95
2022-11-24T21:05:38.056Z,5.63
2022-11-24T21:10:40.142Z,7.90
2022-11-24T21:15:42.209Z,7.88
2022-11-24T21:20:44.735Z,7.13
2022-11-24T21:25:46.794Z,6.45
2022-11-24T21:30:48.888Z,9.02
2022-11-24T21:35:50.948Z,5.03
2022-11-24T21:40:53.029Z,3.95
2022-11-24T21:45:55.391Z,5.70
2022-11-24T21:50:59.033Z,5.50
2022-11-24T21:56:03.574Z,6.68
2022-11-24T22:01:10.714Z,5.30
2022-11-24T22:06:13.482Z,5.55
2022-11-24T22:11:23.838Z,6.50
2022-11-24T22:16:26.062Z,3.80
2022-11-24T22:21:33.212Z,5.00
2022-11-24T22:26:35.896Z,4.30
2022-11-24T22:31:37.905Z,5.88
2022-11-24T22:36:39.945Z,4.75
2022-11-24T22:41:41.973Z,5.30
2022-11-24T22:46:43.948Z,4.32
2022-11-24T22:51:45.988Z,5.97
2022-11-24T22:56:48.050Z,4.20
2022-11-24T23:01:50.186Z,6.55
2022-11-24T23:06:52.369Z,3.70
2022-11-24T23:11:54.321Z,5.28
2022-11-24T23:16:56.364Z,4.72
2022-11-24T23:21:58.510Z,3.95
2022-11-24T23:27:00.477Z,5.18
2022-11-24T23:32:02.510Z,5.47
2022-11-24T23:37:04.630Z,5.15
2022-11-24T23:42:06.681Z,5.72
2022-11-24T23:47:08.719Z,5.10
2022-11-24T23:52:10.911Z,5.22
2022-11-24T23:57:12.933Z,5.30
